Malaspina — WI6803 — position and weather

sailwx.info

Track history (hours):
 
Tides and Currents Weather Stations Pressure Air Temp Water Temp Dewpoint Dewpoint Depression Visibility Wind Speed Wind Dir Waves Ship Positions

Malaspina

Owner: ALASKA, STATE OF, ANCHORAGE, AK. More information available from US FCC via Universal Licensing System and Coast Guard Vessel Documentation Center.

Last reported at 2018-Jun-19 13:51 UTC. Time now 2018-Jun-19 20:04 UTC.
Position N 54°52' W 131°02'.

Type: Ship. MMSI: 367143000.

Date/timePositionNaut miles runAvg speedWind from/ knotsBaromVisibWave heightAir tempDewpointWater temp
2018-Jun-19 13:51N 54°52' W 131°02'716.4
2018-Jun-19 13:24N 54°46' W 130°56'716.8
2018-Jun-19 13:00N 54°41' W 130°48'816.8
2018-Jun-19 12:30N 54°34' W 130°40'816.4
2018-Jun-19 12:00N 54°26' W 130°37'816.1
2018-Jun-19 11:30N 54°18' W 130°34'816.3
2018-Jun-19 11:00N 54°13' W 130°23'4 7.8
2018-Jun-19 10:30N 54°17' W 130°22'1 1.6
2018-Jun-19 10:00N 54°18' W 130°21'0 0.0
2018-Jun-19 09:28N 54°18' W 130°21'0 0.0
2018-Jun-19 08:58N 54°18' W 130°21'0 0.0
2018-Jun-19 08:28N 54°18' W 130°21'0 0.0
2018-Jun-19 07:58N 54°18' W 130°21'0 0.0
2018-Jun-19 07:28N 54°18' W 130°21'0 0.0
2018-Jun-19 06:58N 54°18' W 130°21'0 0.0
2018-Jun-19 06:28N 54°18' W 130°21'0 0.0
2018-Jun-19 05:55N 54°18' W 130°21'1 3.0
2018-Jun-19 05:31N 54°17' W 130°22'4 7.4
2018-Jun-19 05:00N 54°14' W 130°25'815.3
2018-Jun-19 04:30N 54°19' W 130°35'816.9
2018-Jun-19 04:00N 54°27' W 130°39'816.5
2018-Jun-19 03:30N 54°35' W 130°44'815.5
2018-Jun-19 03:00N 54°42' W 130°49'816.2
2018-Jun-19 02:30N 54°48' W 130°59'  
2018-Jun-16 07:22N 54°47' W 130°58'616.2
2018-Jun-16 07:00N 54°43' W 130°52'816.0
2018-Jun-16 06:29N 54°37' W 130°43'815.9
2018-Jun-16 06:01N 54°29' W 130°39'816.5
2018-Jun-16 05:30N 54°21' W 130°36'815.2
2018-Jun-16 05:00N 54°15' W 130°28'4 8.4
2018-Jun-16 04:30N 54°15' W 130°21'2 4.7
2018-Jun-16 04:00N 54°18' W 130°21'0 0.0
2018-Jun-16 03:29N 54°18' W 130°21'0 0.0
2018-Jun-16 02:59N 54°18' W 130°21'0 0.0
2018-Jun-16 02:29N 54°18' W 130°21'0 0.0
2018-Jun-16 01:41N 54°18' W 130°21'0 0.0
2018-Jun-16 01:14N 54°18' W 130°21'0 0.0
2018-Jun-16 01:00N 54°18' W 130°21'2 3.3
2018-Jun-16 00:30N 54°16' W 130°22'3 6.8
2018-Jun-16 00:00N 54°14' W 130°26'815.9
2018-Jun-15 23:30N 54°20' W 130°35'816.5
2018-Jun-15 23:01N 54°28' W 130°38'916.6
2018-Jun-15 22:30N 54°36' W 130°42'816.5
2018-Jun-15 22:00N 54°42' W 130°51'  
2018-Jun-12 17:26N 54°47' W 130°57'717.6
2018-Jun-12 17:00N 54°41' W 130°49'917.2
2018-Jun-12 16:30N 54°34' W 130°40'817.0
2018-Jun-12 16:00N 54°26' W 130°37'816.4
2018-Jun-12 15:30N 54°18' W 130°34'816.7
2018-Jun-12 15:00N 54°13' W 130°22'5 9.5
2018-Jun-12 14:30N 54°18' W 130°21'0 0.1
2018-Jun-12 13:59N 54°18' W 130°21'0 0.0
2018-Jun-12 13:29N 54°18' W 130°21'0 0.0
2018-Jun-12 12:56N 54°18' W 130°21'0 0.0
2018-Jun-12 12:29N 54°18' W 130°21'0 0.0
2018-Jun-12 11:59N 54°18' W 130°21'0 0.0
2018-Jun-12 11:29N 54°18' W 130°21'0 0.0
2018-Jun-12 10:59N 54°18' W 130°21'0 0.0
2018-Jun-12 10:30N 54°18' W 130°21'2 4.3
2018-Jun-12 09:59N 54°16' W 130°21'3 7.3
2018-Jun-12 09:30N 54°14' W 130°27'815.6
2018-Jun-12 09:00N 54°20' W 130°36'816.7
2018-Jun-12 08:30N 54°28' W 130°38'816.2
2018-Jun-12 08:00N 54°36' W 130°42'816.5
2018-Jun-12 07:30N 54°43' W 130°51'  
Track history (hours):
 
Tides and Currents Weather Stations Pressure Air Temp Water Temp Dewpoint Dewpoint Depression Visibility Wind Speed Wind Dir Waves Ship Positions

Malaspina

Owner: ALASKA, STATE OF, ANCHORAGE, AK. More information available from US FCC via Universal Licensing System and Coast Guard Vessel Documentation Center.

Last reported at 2018-Jun-19 13:51 UTC. Time now 2018-Jun-19 20:04 UTC.
Position N 54°52' W 131°02'.

Type: Ship. MMSI: 367143000.

Date/timePositionNaut miles runAvg speedWind from/ knotsBaromVisibWave heightAir tempDewpointWater temp
2018-Jun-19 13:51N 54°52' W 131°02'716.4
2018-Jun-19 13:24N 54°46' W 130°56'716.8
2018-Jun-19 13:00N 54°41' W 130°48'816.8
2018-Jun-19 12:30N 54°34' W 130°40'816.4
2018-Jun-19 12:00N 54°26' W 130°37'816.1
2018-Jun-19 11:30N 54°18' W 130°34'816.3
2018-Jun-19 11:00N 54°13' W 130°23'4 7.8
2018-Jun-19 10:30N 54°17' W 130°22'1 1.6
2018-Jun-19 10:00N 54°18' W 130°21'0 0.0
2018-Jun-19 09:28N 54°18' W 130°21'0 0.0
2018-Jun-19 08:58N 54°18' W 130°21'0 0.0
2018-Jun-19 08:28N 54°18' W 130°21'0 0.0
2018-Jun-19 07:58N 54°18' W 130°21'0 0.0
2018-Jun-19 07:28N 54°18' W 130°21'0 0.0
2018-Jun-19 06:58N 54°18' W 130°21'0 0.0
2018-Jun-19 06:28N 54°18' W 130°21'0 0.0
2018-Jun-19 05:55N 54°18' W 130°21'1 3.0
2018-Jun-19 05:31N 54°17' W 130°22'4 7.4
2018-Jun-19 05:00N 54°14' W 130°25'815.3
2018-Jun-19 04:30N 54°19' W 130°35'816.9
2018-Jun-19 04:00N 54°27' W 130°39'816.5
2018-Jun-19 03:30N 54°35' W 130°44'815.5
2018-Jun-19 03:00N 54°42' W 130°49'816.2
2018-Jun-19 02:30N 54°48' W 130°59'  
2018-Jun-16 07:22N 54°47' W 130°58'616.2
2018-Jun-16 07:00N 54°43' W 130°52'816.0
2018-Jun-16 06:29N 54°37' W 130°43'815.9
2018-Jun-16 06:01N 54°29' W 130°39'816.5
2018-Jun-16 05:30N 54°21' W 130°36'815.2
2018-Jun-16 05:00N 54°15' W 130°28'4 8.4
2018-Jun-16 04:30N 54°15' W 130°21'2 4.7
2018-Jun-16 04:00N 54°18' W 130°21'0 0.0
2018-Jun-16 03:29N 54°18' W 130°21'0 0.0
2018-Jun-16 02:59N 54°18' W 130°21'0 0.0
2018-Jun-16 02:29N 54°18' W 130°21'0 0.0
2018-Jun-16 01:41N 54°18' W 130°21'0 0.0
2018-Jun-16 01:14N 54°18' W 130°21'0 0.0
2018-Jun-16 01:00N 54°18' W 130°21'2 3.3
2018-Jun-16 00:30N 54°16' W 130°22'3 6.8
2018-Jun-16 00:00N 54°14' W 130°26'815.9
2018-Jun-15 23:30N 54°20' W 130°35'816.5
2018-Jun-15 23:01N 54°28' W 130°38'916.6
2018-Jun-15 22:30N 54°36' W 130°42'816.5
2018-Jun-15 22:00N 54°42' W 130°51'  
2018-Jun-12 17:26N 54°47' W 130°57'717.6
2018-Jun-12 17:00N 54°41' W 130°49'917.2
2018-Jun-12 16:30N 54°34' W 130°40'817.0
2018-Jun-12 16:00N 54°26' W 130°37'816.4
2018-Jun-12 15:30N 54°18' W 130°34'816.7
2018-Jun-12 15:00N 54°13' W 130°22'5 9.5
2018-Jun-12 14:30N 54°18' W 130°21'0 0.1
2018-Jun-12 13:59N 54°18' W 130°21'0 0.0
2018-Jun-12 13:29N 54°18' W 130°21'0 0.0
2018-Jun-12 12:56N 54°18' W 130°21'0 0.0
2018-Jun-12 12:29N 54°18' W 130°21'0 0.0
2018-Jun-12 11:59N 54°18' W 130°21'0 0.0
2018-Jun-12 11:29N 54°18' W 130°21'0 0.0
2018-Jun-12 10:59N 54°18' W 130°21'0 0.0
2018-Jun-12 10:30N 54°18' W 130°21'2 4.3
2018-Jun-12 09:59N 54°16' W 130°21'3 7.3
2018-Jun-12 09:30N 54°14' W 130°27'815.6
2018-Jun-12 09:00N 54°20' W 130°36'816.7
2018-Jun-12 08:30N 54°28' W 130°38'816.2
2018-Jun-12 08:00N 54°36' W 130°42'816.5
2018-Jun-12 07:30N 54°43' W 130°51'  

Dump ship's entire track history